createdAt,value
2019-05-21T00:01:13.421Z,15.50
2019-05-21T00:03:43.010Z,15.50
2019-05-21T00:06:12.611Z,15.50
2019-05-21T00:08:42.180Z,15.40
2019-05-21T00:11:11.901Z,15.30
2019-05-21T00:13:41.471Z,15.30
2019-05-21T00:16:11.052Z,15.30
2019-05-21T00:18:40.602Z,15.20
2019-05-21T00:21:10.394Z,15.20
2019-05-21T00:23:40.943Z,15.30
2019-05-21T00:26:10.621Z,15.30
2019-05-21T00:28:42.251Z,15.20
2019-05-21T00:31:48.056Z,15.30
2019-05-21T00:34:53.883Z,15.30
2019-05-21T00:37:59.740Z,15.20
2019-05-21T00:41:06.000Z,15.20
2019-05-21T00:43:48.711Z,15.10
2019-05-21T00:46:18.294Z,15.00
2019-05-21T00:48:47.880Z,15.10
2019-05-21T00:51:17.484Z,15.00
2019-05-21T00:53:48.144Z,15.00
2019-05-21T00:56:17.714Z,15.00
2019-05-21T00:58:47.297Z,15.10
2019-05-21T01:01:16.862Z,15.00
2019-05-21T01:03:46.498Z,15.00
2019-05-21T01:06:16.073Z,14.90
2019-05-21T01:08:45.668Z,14.90
2019-05-21T01:11:15.230Z,14.80
2019-05-21T01:13:45.142Z,14.80
2019-05-21T01:16:14.710Z,14.80
2019-05-21T01:18:44.299Z,14.80
2019-05-21T01:21:14.011Z,14.80
2019-05-21T01:23:43.579Z,14.80
2019-05-21T01:26:13.161Z,14.80
2019-05-21T01:28:42.716Z,14.80
2019-05-21T01:31:12.256Z,14.60
2019-05-21T01:33:41.886Z,14.60
2019-05-21T01:36:11.469Z,14.60
2019-05-21T01:38:41.040Z,14.70
2019-05-21T01:41:10.614Z,14.70
2019-05-21T01:43:40.198Z,14.60
2019-05-21T01:46:09.792Z,14.50
2019-05-21T01:48:39.370Z,14.50
2019-05-21T01:51:09.064Z,14.40
2019-05-21T01:53:38.713Z,14.40
2019-05-21T01:56:09.326Z,14.40
2019-05-21T01:58:38.943Z,14.30
2019-05-21T02:01:08.708Z,14.30
2019-05-21T02:03:38.368Z,14.30
2019-05-21T02:06:07.953Z,14.30
2019-05-21T02:08:37.632Z,14.10
2019-05-21T02:11:07.197Z,14.10
2019-05-21T02:13:36.788Z,14.10
2019-05-21T02:16:06.394Z,14.10
2019-05-21T02:18:35.953Z,14.20
2019-05-21T02:21:05.508Z,14.20
2019-05-21T02:23:35.056Z,14.20
2019-05-21T02:26:04.720Z,14.20
2019-05-21T02:28:34.304Z,14.10
2019-05-21T02:31:03.868Z,14.20
2019-05-21T02:33:33.407Z,14.10
2019-05-21T02:36:03.970Z,14.10
2019-05-21T02:38:33.567Z,14.00
2019-05-21T02:41:03.306Z,14.00
2019-05-21T02:43:32.931Z,14.00
2019-05-21T02:46:02.514Z,14.00
2019-05-21T02:48:32.174Z,13.90
2019-05-21T02:51:01.763Z,13.90
2019-05-21T02:53:34.388Z,13.90
2019-05-21T02:56:02.688Z,13.80
2019-05-21T02:58:32.292Z,13.70
2019-05-21T03:01:17.682Z,13.70
2019-05-21T03:03:46.074Z,13.60
2019-05-21T03:06:15.619Z,13.60
2019-05-21T03:08:45.177Z,13.60
2019-05-21T03:11:14.829Z,13.60
2019-05-21T03:13:44.450Z,13.60
2019-05-21T03:16:14.045Z,13.50
2019-05-21T03:18:43.683Z,13.50
2019-05-21T03:21:13.381Z,13.50
2019-05-21T03:23:43.050Z,13.50
2019-05-21T03:26:12.631Z,13.50
2019-05-21T03:28:42.247Z,13.40
2019-05-21T03:31:11.810Z,13.50
2019-05-21T03:33:42.383Z,13.50
2019-05-21T03:36:12.002Z,13.50
2019-05-21T03:38:41.564Z,13.50
2019-05-21T03:41:12.308Z,13.50
2019-05-21T03:43:41.878Z,13.50
2019-05-21T03:46:11.530Z,13.50
2019-05-21T03:48:41.195Z,13.50
2019-05-21T03:51:10.782Z,13.50
2019-05-21T03:53:40.365Z,13.60
2019-05-21T03:56:09.913Z,13.60
2019-05-21T03:58:39.494Z,13.60
2019-05-21T04:01:09.067Z,13.70
2019-05-21T04:03:38.629Z,13.60
2019-05-21T04:06:08.230Z,13.60
2019-05-21T04:08:38.669Z,13.60
2019-05-21T04:11:08.220Z,13.60
2019-05-21T04:13:37.802Z,13.70
2019-05-21T04:16:38.810Z,13.70
2019-05-21T04:19:11.979Z,13.70
2019-05-21T04:21:41.877Z,13.70
2019-05-21T04:24:11.470Z,13.80
2019-05-21T04:26:41.063Z,13.80
2019-05-21T04:29:11.621Z,13.80
2019-05-21T04:31:41.157Z,13.80
2019-05-21T04:34:10.716Z,13.80
2019-05-21T04:36:40.248Z,13.80
2019-05-21T04:39:09.828Z,13.80
2019-05-21T04:41:39.389Z,13.90
2019-05-21T04:44:08.953Z,13.90
2019-05-21T04:46:38.548Z,13.90
2019-05-21T04:49:08.103Z,13.90
2019-05-21T04:51:37.663Z,13.90
2019-05-21T04:54:08.219Z,13.80
2019-05-21T04:56:37.805Z,13.90
2019-05-21T04:59:07.378Z,13.80
2019-05-21T05:01:40.592Z,13.90
2019-05-21T05:04:10.307Z,13.90
2019-05-21T05:06:39.886Z,13.80
2019-05-21T05:09:09.583Z,13.80
2019-05-21T05:11:47.986Z,13.90
2019-05-21T05:14:17.564Z,14.00
2019-05-21T05:16:47.202Z,14.10
2019-05-21T05:19:16.835Z,14.10
2019-05-21T05:21:46.412Z,14.10
2019-05-21T05:24:16.025Z,14.20
2019-05-21T05:26:45.588Z,14.40
2019-05-21T05:29:15.122Z,14.50
2019-05-21T05:31:50.808Z,14.50
2019-05-21T05:34:20.348Z,14.50
2019-05-21T05:36:49.957Z,14.60
2019-05-21T05:39:19.505Z,14.70
2019-05-21T05:41:49.108Z,14.80
2019-05-21T05:44:18.667Z,14.90
2019-05-21T05:46:48.221Z,15.00
2019-05-21T05:49:23.066Z,15.10
2019-05-21T05:51:52.648Z,15.20
2019-05-21T05:54:22.230Z,15.30
2019-05-21T05:56:54.655Z,15.60
2019-05-21T05:59:24.365Z,15.70
2019-05-21T06:01:53.967Z,15.80
2019-05-21T06:04:23.662Z,15.90
2019-05-21T06:06:53.265Z,15.90
2019-05-21T06:09:22.820Z,16.10
2019-05-21T06:11:52.494Z,16.30
2019-05-21T06:14:22.094Z,16.40
2019-05-21T06:16:51.741Z,16.50
2019-05-21T06:19:21.339Z,16.60
2019-05-21T06:21:50.965Z,16.80
2019-05-21T06:24:20.507Z,16.80
2019-05-21T06:26:50.102Z,16.90
2019-05-21T06:29:19.708Z,16.90
2019-05-21T06:31:49.281Z,17.10
2019-05-21T06:34:18.904Z,17.30
2019-05-21T06:36:48.501Z,17.30
2019-05-21T06:39:19.013Z,17.30
2019-05-21T06:41:48.601Z,17.50
2019-05-21T06:44:18.200Z,17.60
2019-05-21T06:46:47.772Z,17.70
2019-05-21T06:49:17.318Z,17.70
2019-05-21T06:51:46.852Z,17.80
2019-05-21T06:54:16.438Z,17.80
2019-05-21T06:56:50.597Z,17.90
2019-05-21T06:59:23.352Z,18.00
2019-05-21T07:01:53.014Z,18.10
2019-05-21T07:04:22.646Z,18.20
2019-05-21T07:06:52.207Z,18.30
2019-05-21T07:09:21.783Z,18.30
2019-05-21T07:11:51.383Z,18.30
2019-05-21T07:14:20.999Z,18.30
2019-05-21T07:16:50.797Z,18.40
2019-05-21T07:19:20.578Z,18.50
2019-05-21T07:21:50.252Z,18.70
2019-05-21T07:24:19.814Z,18.80
2019-05-21T07:26:49.822Z,18.90
2019-05-21T07:29:19.914Z,18.80
2019-05-21T07:31:49.583Z,18.80
2019-05-21T07:34:19.162Z,19.00
2019-05-21T07:36:48.731Z,19.20
2019-05-21T07:39:18.390Z,19.10
2019-05-21T07:41:54.790Z,19.20
2019-05-21T07:44:24.414Z,19.40
2019-05-21T07:46:53.991Z,19.30
2019-05-21T07:49:23.533Z,19.50
2019-05-21T07:51:53.151Z,19.60
2019-05-21T07:54:22.689Z,19.70
2019-05-21T07:56:52.255Z,19.90
2019-05-21T07:59:21.822Z,20.00
2019-05-21T08:01:51.366Z,20.10
2019-05-21T08:04:20.887Z,20.20
2019-05-21T08:06:51.569Z,20.30
2019-05-21T08:09:21.172Z,20.50
2019-05-21T08:11:50.813Z,20.30
2019-05-21T08:14:20.375Z,20.60
2019-05-21T08:16:50.008Z,20.50
2019-05-21T08:19:19.553Z,20.50
2019-05-21T08:21:49.114Z,20.80
2019-05-21T08:24:18.715Z,20.90
2019-05-21T08:26:48.644Z,20.90
2019-05-21T08:29:18.172Z,21.20
2019-05-21T08:31:47.733Z,21.10
2019-05-21T08:34:17.297Z,21.10
2019-05-21T08:36:46.924Z,21.40
2019-05-21T08:39:28.390Z,21.60
2019-05-21T08:41:47.919Z,21.70
2019-05-21T08:44:17.582Z,21.90
2019-05-21T08:46:47.154Z,21.70
2019-05-21T08:49:16.750Z,21.90
2019-05-21T08:51:46.399Z,22.00
2019-05-21T08:54:18.310Z,21.70
2019-05-21T08:56:48.914Z,21.50
2019-05-21T08:59:18.493Z,21.20
2019-05-21T09:01:48.053Z,21.20
2019-05-21T09:04:17.649Z,21.60
2019-05-21T09:06:47.319Z,21.60
2019-05-21T09:09:16.889Z,21.80
2019-05-21T09:11:46.512Z,22.20
2019-05-21T09:14:16.091Z,22.20
2019-05-21T09:16:45.649Z,22.40
2019-05-21T09:19:15.177Z,22.50
2019-05-21T09:21:44.746Z,22.90
2019-05-21T09:24:14.274Z,23.40
2019-05-21T09:26:43.857Z,23.80
2019-05-21T09:29:13.472Z,23.70
2019-05-21T09:31:43.112Z,23.80
2019-05-21T09:34:13.829Z,23.90
2019-05-21T09:36:43.387Z,24.30
2019-05-21T09:39:13.163Z,24.70
2019-05-21T09:41:42.700Z,24.80
2019-05-21T09:44:12.344Z,24.80
2019-05-21T09:46:41.933Z,24.70
2019-05-21T09:49:11.467Z,24.60
2019-05-21T09:51:41.067Z,24.10
2019-05-21T09:54:10.684Z,23.80
2019-05-21T09:56:40.204Z,23.80
2019-05-21T09:59:19.541Z,23.60
2019-05-21T10:01:50.564Z,23.50
2019-05-21T10:04:20.144Z,24.00
2019-05-21T10:06:49.665Z,24.30
2019-05-21T10:09:20.032Z,24.60
2019-05-21T10:11:49.589Z,24.50
2019-05-21T10:14:19.352Z,24.20
2019-05-21T10:16:48.984Z,23.90
2019-05-21T10:19:18.538Z,24.00
2019-05-21T10:21:48.128Z,23.70
2019-05-21T10:24:18.108Z,23.50
2019-05-21T10:26:48.043Z,23.50
2019-05-21T10:29:17.667Z,23.20
2019-05-21T10:31:47.232Z,23.20
2019-05-21T10:34:16.801Z,22.90
2019-05-21T10:36:46.399Z,22.90
2019-05-21T10:39:16.236Z,22.90
2019-05-21T10:41:46.329Z,23.10
2019-05-21T10:44:15.928Z,23.40
2019-05-21T10:46:46.713Z,23.60
2019-05-21T10:49:16.324Z,24.00
2019-05-21T10:51:46.012Z,24.00
2019-05-21T10:54:15.638Z,23.80
2019-05-21T10:56:48.342Z,23.40
2019-05-21T10:59:16.834Z,23.30
2019-05-21T11:01:58.821Z,23.70
2019-05-21T11:04:32.949Z,23.50
2019-05-21T11:07:06.867Z,23.20
2019-05-21T11:09:36.500Z,23.20
2019-05-21T11:12:07.158Z,23.40
2019-05-21T11:14:36.869Z,24.00
2019-05-21T11:17:11.554Z,24.50
2019-05-21T11:19:41.410Z,24.70
2019-05-21T11:22:11.154Z,25.00
2019-05-21T11:24:40.768Z,25.80
2019-05-21T11:27:10.529Z,25.70
2019-05-21T11:29:40.120Z,25.70
2019-05-21T11:32:09.709Z,25.50
2019-05-21T11:34:39.317Z,25.80
2019-05-21T11:37:09.230Z,26.00
2019-05-21T11:39:38.795Z,26.00
2019-05-21T11:42:08.368Z,26.10
2019-05-21T11:44:37.936Z,26.00
2019-05-21T11:47:07.980Z,25.70
2019-05-21T11:49:37.572Z,26.40
2019-05-21T11:52:07.432Z,26.10
2019-05-21T11:54:38.214Z,25.60
2019-05-21T11:57:08.518Z,26.00
2019-05-21T11:59:38.163Z,26.80
2019-05-21T12:02:09.607Z,27.80
2019-05-21T12:04:39.417Z,28.40
2019-05-21T12:07:09.310Z,28.70
2019-05-21T12:09:45.433Z,28.80
2019-05-21T12:12:15.134Z,29.30
2019-05-21T12:14:44.774Z,28.70
2019-05-21T12:17:14.557Z,28.30
2019-05-21T12:19:44.502Z,27.80
2019-05-21T12:22:14.294Z,27.80
2019-05-21T12:24:43.857Z,28.00
2019-05-21T12:27:13.497Z,28.20
2019-05-21T12:29:43.065Z,28.20
2019-05-21T12:32:12.850Z,29.00
2019-05-21T12:34:42.398Z,29.60
2019-05-21T12:37:12.193Z,29.90
2019-05-21T12:39:42.219Z,29.30
2019-05-21T12:42:12.109Z,29.10
2019-05-21T12:44:42.766Z,29.80
2019-05-21T12:47:12.377Z,29.90
2019-05-21T12:49:41.944Z,30.00
2019-05-21T12:52:11.513Z,29.50
2019-05-21T12:54:41.113Z,29.10
2019-05-21T12:57:10.762Z,28.60
2019-05-21T12:59:40.660Z,28.50
2019-05-21T13:02:10.405Z,27.60
2019-05-21T13:04:40.470Z,26.90
2019-05-21T13:07:10.742Z,27.00
2019-05-21T13:09:40.340Z,27.20
2019-05-21T13:12:09.944Z,26.80
2019-05-21T13:14:39.527Z,26.80
2019-05-21T13:17:09.143Z,27.20
2019-05-21T13:19:40.354Z,27.50
2019-05-21T13:22:10.268Z,27.50
2019-05-21T13:24:39.847Z,27.80
2019-05-21T13:27:09.405Z,28.90
2019-05-21T13:29:39.072Z,28.60
2019-05-21T13:32:09.293Z,28.50
2019-05-21T13:34:38.984Z,28.90
2019-05-21T13:37:08.617Z,29.90
2019-05-21T13:39:49.578Z,31.00
2019-05-21T13:42:09.825Z,29.60
2019-05-21T13:44:39.755Z,30.00
2019-05-21T13:47:09.503Z,29.90
2019-05-21T13:49:39.086Z,29.60
2019-05-21T13:52:08.670Z,29.40
2019-05-21T13:54:38.400Z,29.10
2019-05-21T13:57:07.932Z,28.80
2019-05-21T13:59:37.485Z,28.50
2019-05-21T14:02:08.748Z,28.90
2019-05-21T14:04:38.715Z,29.70
2019-05-21T14:07:08.390Z,29.80
2019-05-21T14:09:37.941Z,30.70
2019-05-21T14:12:07.642Z,30.50
2019-05-21T14:14:38.371Z,30.00
2019-05-21T14:17:08.041Z,30.00
2019-05-21T14:19:38.210Z,30.50
2019-05-21T14:22:08.282Z,30.40
2019-05-21T14:24:38.883Z,30.00
2019-05-21T14:27:09.003Z,30.20
2019-05-21T14:30:05.259Z,29.90
2019-05-21T14:32:39.332Z,29.40
2019-05-21T14:35:09.140Z,28.80
2019-05-21T14:37:38.820Z,28.30
2019-05-21T14:40:09.763Z,28.00
2019-05-21T14:42:39.421Z,27.60
2019-05-21T14:45:10.453Z,27.20
2019-05-21T14:47:40.010Z,27.10
2019-05-21T14:50:10.085Z,26.90
2019-05-21T14:52:39.652Z,26.60
2019-05-21T14:55:09.423Z,26.40
2019-05-21T14:57:39.051Z,25.90
2019-05-21T15:00:19.992Z,25.60
2019-05-21T15:02:49.616Z,25.40
2019-05-21T15:05:19.225Z,25.40
2019-05-21T15:07:49.741Z,25.60
2019-05-21T15:10:19.949Z,25.70
2019-05-21T15:12:49.657Z,25.80
2019-05-21T15:15:19.281Z,25.80
2019-05-21T15:17:48.971Z,25.80
2019-05-21T15:20:41.272Z,25.60
2019-05-21T15:23:11.048Z,25.80
2019-05-21T15:25:40.599Z,25.70
2019-05-21T15:28:10.160Z,25.90
2019-05-21T15:30:39.779Z,25.80
2019-05-21T15:33:09.358Z,25.70
2019-05-21T15:35:39.049Z,25.40
2019-05-21T15:38:08.629Z,25.70
2019-05-21T15:40:38.308Z,25.90
2019-05-21T15:43:07.915Z,26.20
2019-05-21T15:45:37.485Z,26.50
2019-05-21T15:48:07.053Z,26.90
2019-05-21T15:50:36.622Z,26.90
2019-05-21T15:53:06.217Z,26.70
2019-05-21T15:55:35.854Z,26.80
2019-05-21T15:58:05.600Z,26.70
2019-05-21T16:00:35.274Z,26.60
2019-05-21T16:03:04.896Z,27.00
2019-05-21T16:05:34.537Z,27.00
2019-05-21T16:08:04.317Z,26.80
2019-05-21T16:10:33.984Z,26.40
2019-05-21T16:13:03.622Z,26.10
2019-05-21T16:15:33.269Z,26.30
2019-05-21T16:18:02.809Z,26.50
2019-05-21T16:20:33.037Z,26.60
2019-05-21T16:23:02.579Z,26.20
2019-05-21T16:25:32.236Z,26.20
2019-05-21T16:28:01.910Z,26.20
2019-05-21T16:30:31.860Z,26.10
2019-05-21T16:33:01.602Z,26.40
2019-05-21T16:35:31.864Z,26.30
2019-05-21T16:38:01.473Z,26.40
2019-05-21T16:40:31.152Z,26.10
2019-05-21T16:43:00.833Z,26.50
2019-05-21T16:45:30.399Z,26.20
2019-05-21T16:48:01.002Z,26.30
2019-05-21T16:50:30.805Z,26.50
2019-05-21T16:53:00.393Z,26.10
2019-05-21T16:55:30.096Z,25.70
2019-05-21T16:57:59.785Z,25.10
2019-05-21T17:00:30.669Z,24.60
2019-05-21T17:03:00.367Z,24.10
2019-05-21T17:05:31.159Z,23.70
2019-05-21T17:08:00.815Z,23.40
2019-05-21T17:10:30.663Z,23.10
2019-05-21T17:13:00.308Z,23.10
2019-05-21T17:15:29.921Z,23.00
2019-05-21T17:17:59.487Z,22.90
2019-05-21T17:20:29.229Z,22.70
2019-05-21T17:23:00.468Z,22.50
2019-05-21T17:25:30.148Z,22.30
2019-05-21T17:27:59.820Z,22.30
2019-05-21T17:30:29.381Z,22.20
2019-05-21T17:32:58.952Z,22.20
2019-05-21T17:35:28.673Z,22.20
2019-05-21T17:37:58.210Z,22.10
2019-05-21T17:40:27.818Z,22.10
2019-05-21T17:42:57.378Z,22.00
2019-05-21T17:45:26.936Z,22.00
2019-05-21T17:47:56.480Z,21.90
2019-05-21T17:50:26.095Z,22.00
2019-05-21T17:52:55.854Z,22.00
2019-05-21T17:55:25.638Z,21.90
2019-05-21T17:57:55.454Z,21.90
2019-05-21T18:00:38.349Z,21.80
2019-05-21T18:03:08.008Z,21.80
2019-05-21T18:05:37.557Z,21.80
2019-05-21T18:08:07.376Z,21.80
2019-05-21T18:10:37.224Z,21.60
2019-05-21T18:13:06.865Z,21.60
2019-05-21T18:15:36.687Z,21.60
2019-05-21T18:18:06.720Z,21.50
2019-05-21T18:20:36.373Z,21.40
2019-05-21T18:23:06.953Z,21.30
2019-05-21T18:25:36.627Z,21.20
2019-05-21T18:28:06.415Z,21.20
2019-05-21T18:30:36.189Z,21.10
2019-05-21T18:33:06.201Z,21.10
2019-05-21T18:35:35.935Z,21.20
2019-05-21T18:38:05.612Z,21.10
2019-05-21T18:40:35.384Z,21.10
2019-05-21T18:43:05.019Z,20.80
2019-05-21T18:45:35.709Z,21.00
2019-05-21T18:48:05.425Z,21.50
2019-05-21T18:50:36.997Z,21.70
2019-05-21T18:53:06.283Z,21.90
2019-05-21T18:55:35.831Z,21.90
2019-05-21T18:58:05.383Z,22.00
2019-05-21T19:00:35.030Z,22.00
2019-05-21T19:03:04.871Z,21.90
2019-05-21T19:05:34.449Z,21.90
2019-05-21T19:08:04.219Z,21.80
2019-05-21T19:10:33.852Z,21.60
2019-05-21T19:13:03.633Z,21.40
2019-05-21T19:15:33.487Z,21.20
2019-05-21T19:18:03.066Z,21.10
2019-05-21T19:20:32.692Z,20.90
2019-05-21T19:23:02.237Z,20.80
2019-05-21T19:25:31.960Z,20.60
2019-05-21T19:28:01.504Z,20.50
2019-05-21T19:30:31.112Z,20.50
2019-05-21T19:33:00.697Z,20.30
2019-05-21T19:35:33.029Z,19.70
2019-05-21T19:38:01.742Z,19.80
2019-05-21T19:40:31.410Z,20.10
2019-05-21T19:43:01.246Z,20.20
2019-05-21T19:45:31.465Z,20.20
2019-05-21T19:48:01.280Z,20.20
2019-05-21T19:50:31.069Z,20.10
2019-05-21T19:53:00.681Z,20.10
2019-05-21T19:55:30.995Z,19.80
2019-05-21T19:58:00.611Z,19.70
2019-05-21T20:00:31.982Z,19.70
2019-05-21T20:03:01.691Z,19.60
2019-05-21T20:05:31.291Z,19.50
2019-05-21T20:08:00.952Z,19.40
2019-05-21T20:10:40.772Z,19.00
2019-05-21T20:13:12.131Z,18.50
2019-05-21T20:15:46.123Z,18.30
2019-05-21T20:18:16.433Z,18.10
2019-05-21T20:20:46.155Z,18.00
2019-05-21T20:23:19.436Z,17.90
2019-05-21T20:25:56.605Z,17.90
2019-05-21T20:28:21.366Z,18.00
2019-05-21T20:30:51.575Z,17.60
2019-05-21T20:33:21.207Z,17.70
2019-05-21T20:35:53.041Z,17.70
2019-05-21T20:38:23.066Z,17.40
2019-05-21T20:40:53.261Z,17.30
2019-05-21T20:43:22.928Z,17.40
2019-05-21T20:45:52.592Z,17.40
2019-05-21T20:48:25.980Z,17.30
2019-05-21T20:50:55.918Z,17.10
2019-05-21T20:53:25.746Z,17.20
2019-05-21T20:55:55.321Z,17.10
2019-05-21T20:58:25.227Z,17.10
2019-05-21T21:00:58.444Z,17.10
2019-05-21T21:03:28.135Z,16.80
2019-05-21T21:05:57.932Z,16.70
2019-05-21T21:08:28.141Z,16.60
2019-05-21T21:10:57.916Z,16.60
2019-05-21T21:13:28.269Z,16.60
2019-05-21T21:15:58.354Z,16.60
2019-05-21T21:18:28.931Z,16.60
2019-05-21T21:20:58.477Z,16.70
2019-05-21T21:23:30.181Z,16.70
2019-05-21T21:25:59.747Z,16.70
2019-05-21T21:28:29.510Z,16.80
2019-05-21T21:30:59.281Z,16.70
2019-05-21T21:33:29.295Z,16.70
2019-05-21T21:35:58.840Z,16.70
2019-05-21T21:38:31.039Z,16.60
2019-05-21T21:41:01.749Z,16.60
2019-05-21T21:43:31.340Z,16.50
2019-05-21T21:46:00.985Z,16.40
2019-05-21T21:48:30.986Z,16.50
2019-05-21T21:51:00.980Z,16.60
2019-05-21T21:53:30.620Z,16.50
2019-05-21T21:56:00.252Z,16.50
2019-05-21T21:58:29.817Z,16.50
2019-05-21T22:01:24.341Z,16.50
2019-05-21T22:03:57.242Z,16.50
2019-05-21T22:06:28.204Z,16.40
2019-05-21T22:08:58.249Z,16.40
2019-05-21T22:11:28.081Z,16.40
2019-05-21T22:13:58.013Z,16.40
2019-05-21T22:16:27.856Z,16.40
2019-05-21T22:18:58.628Z,16.30
2019-05-21T22:21:28.484Z,16.50
2019-05-21T22:23:58.513Z,16.50
2019-05-21T22:26:30.036Z,16.50
2019-05-21T22:28:59.975Z,16.60
2019-05-21T22:31:30.141Z,16.60
2019-05-21T22:33:59.987Z,16.60
2019-05-21T22:36:30.605Z,16.60
2019-05-21T22:39:00.563Z,16.60
2019-05-21T22:41:32.179Z,16.70
2019-05-21T22:44:02.404Z,16.60
2019-05-21T22:46:32.245Z,16.60
2019-05-21T22:49:02.064Z,16.50
2019-05-21T22:51:31.784Z,16.50
2019-05-21T22:54:01.659Z,16.50
2019-05-21T22:56:31.471Z,16.60
2019-05-21T22:59:03.212Z,16.60
2019-05-21T23:01:37.712Z,16.70
2019-05-21T23:04:11.727Z,16.80
2019-05-21T23:06:50.775Z,16.70
2019-05-21T23:09:21.041Z,16.70
2019-05-21T23:11:51.002Z,16.70
2019-05-21T23:14:21.206Z,16.60
2019-05-21T23:16:52.675Z,16.70
2019-05-21T23:19:48.348Z,16.60
2019-05-21T23:22:23.669Z,16.60
2019-05-21T23:24:53.980Z,16.60
2019-05-21T23:27:24.641Z,16.50
2019-05-21T23:30:00.917Z,16.50
2019-05-21T23:37:02.506Z,16.60
2019-05-21T23:39:45.933Z,16.70
2019-05-21T23:42:43.692Z,16.70
2019-05-21T23:46:35.338Z,16.70
2019-05-21T23:53:40.675Z,16.70
